Time;durP1;ratioP1;P1;durP2;ratioP2;P2;SDS_P1;SDS_P2;PMS_P1;PMS_P2;Temp;Humidity;BMP_temperature;BMP_pressure;BME280_temperature;BME280_humidity;BME280_pressure;Samples;Min_cycle;Max_cycle;Signal;HPM_P1;HPM_P2
2021/04/15 00:01:35;;;;;;;7.95;3.63;;;16.20;55.80;;;;;;20669342;28;20058;-50
2021/04/15 00:11:38;;;;;;;9.52;3.55;;;16.20;56.10;;;;;;20666856;28;20053;-49
2021/04/15 00:21:39;;;;;;;7.95;3.90;;;16.10;56.30;;;;;;20667984;28;20426;-49
2021/04/15 00:31:39;;;;;;;13.52;4.60;;;15.90;56.50;;;;;;20667152;28;20134;-49
2021/04/15 00:41:40;;;;;;;6.55;3.40;;;15.80;56.50;;;;;;20667209;28;20030;-50
2021/04/15 00:51:45;;;;;;;7.55;3.65;;;15.70;56.70;;;;;;20666854;28;20041;-50
2021/04/15 01:01:46;;;;;;;8.00;3.65;;;15.70;56.90;;;;;;20668287;28;20054;-50
2021/04/15 01:12:08;;;;;;;8.10;4.10;;;15.70;56.90;;;;;;20682894;28;20398;-49
2021/04/15 01:22:14;;;;;;;6.07;3.30;;;15.70;56.90;;;;;;20680957;28;20038;-49
2021/04/15 01:32:37;;;;;;;9.55;4.28;;;15.60;57.20;;;;;;20681111;28;20030;-50
2021/04/15 01:42:49;;;;;;;9.43;3.92;;;15.60;57.50;;;;;;20680674;28;20042;-49
2021/04/15 01:52:55;;;;;;;7.82;4.10;;;15.50;56.80;;;;;;20679867;28;20030;-49
2021/04/15 02:03:08;;;;;;;8.88;3.80;;;15.30;57.20;;;;;;20678179;28;20058;-49
2021/04/15 02:13:11;;;;;;;9.27;3.58;;;15.20;57.40;;;;;;20679063;28;20110;-49
2021/04/15 02:23:23;;;;;;;8.17;3.70;;;15.10;57.90;;;;;;20677110;28;20398;-49
2021/04/15 02:33:31;;;;;;;11.20;4.28;;;15.10;58.10;;;;;;20676337;28;20027;-50
2021/04/15 02:43:39;;;;;;;13.90;4.40;;;15.10;58.40;;;;;;20675751;28;20080;-49
2021/04/15 02:53:55;;;;;;;8.95;5.15;;;15.10;58.20;;;;;;20675239;28;20068;-50
2021/04/15 03:03:58;;;;;;;10.93;4.93;;;14.90;58.50;;;;;;20674122;28;20050;-49
2021/04/15 03:14:04;;;;;;;9.88;4.70;;;14.70;59.10;;;;;;20674566;28;20383;-49
2021/04/15 03:24:36;;;;;;;7.82;4.05;;;14.70;59.60;;;;;;20672412;28;20509;-49
2021/04/15 03:34:57;;;;;;;10.77;4.90;;;14.70;59.50;;;;;;20671766;28;20049;-51
2021/04/15 03:45:20;;;;;;;12.13;4.32;;;14.70;59.70;;;;;;20672227;28;20049;-50
2021/04/15 03:55:37;;;;;;;12.27;5.00;;;14.70;59.70;;;;;;20670198;28;20122;-48
2021/04/15 04:05:47;;;;;;;8.40;4.45;;;14.60;59.80;;;;;;20669239;28;20448;-49
2021/04/15 04:16:01;;;;;;;9.48;4.40;;;14.60;60.00;;;;;;20668587;28;20030;-49
2021/04/15 04:26:07;;;;;;;;;;;14.60;60.10;;;;;;20668159;28;20038;-49
2021/04/15 04:36:10;;;;;;;8.95;4.57;;;14.50;59.80;;;;;;20666972;28;19905;-50
2021/04/15 04:46:51;;;;;;;13.93;5.78;;;14.50;59.70;;;;;;20667021;28;20046;-51
2021/04/15 04:57:24;;;;;;;8.55;4.53;;;14.60;59.50;;;;;;20666637;28;20407;-50
2021/04/15 05:07:27;;;;;;;7.78;4.32;;;14.50;59.80;;;;;;20418760;29;20052;-49
2021/04/15 05:17:34;;;;;;;10.57;5.03;;;14.30;60.60;;;;;;20417576;28;20063;-49
2021/04/15 05:27:38;;;;;;;10.32;5.20;;;14.30;60.70;;;;;;20417465;29;20052;-49
2021/04/15 05:37:39;;;;;;;10.77;5.20;;;14.30;61.00;;;;;;20472617;28;20034;-49
2021/04/15 05:47:54;;;;;;;7.03;5.15;;;14.30;60.80;;;;;;20665060;28;20039;-51
2021/04/15 05:58:02;;;;;;;7.93;5.55;;;14.40;60.00;;;;;;20678531;28;20039;-49
2021/04/15 06:08:07;;;;;;;10.80;6.47;;;14.30;59.80;;;;;;20678148;28;20034;-49
2021/04/15 06:18:23;;;;;;;8.65;4.70;;;14.30;59.70;;;;;;20676606;28;20042;-50
2021/04/15 06:28:29;;;;;;;11.85;4.82;;;14.30;59.30;;;;;;20676531;28;20061;-49
2021/04/15 06:38:57;;;;;;;9.13;5.05;;;14.30;59.20;;;;;;20676210;28;20015;-49
2021/04/15 06:49:26;;;;;;;9.35;4.90;;;14.40;59.00;;;;;;20674936;28;20065;-49
2021/04/15 06:59:57;;;;;;;10.05;5.65;;;14.40;58.80;;;;;;20673192;28;20108;-52
2021/04/15 07:10:03;;;;;;;10.15;4.50;;;14.40;59.00;;;;;;20673358;28;20475;-49
2021/04/15 07:20:25;;;;;;;11.77;6.05;;;14.40;59.30;;;;;;20672584;28;20030;-49
2021/04/15 07:30:56;;;;;;;10.57;4.90;;;14.50;58.90;;;;;;20671911;28;20513;-50
2021/04/15 07:41:21;;;;;;;10.07;4.93;;;14.70;58.50;;;;;;20670820;28;20041;-50
2021/04/15 07:51:40;;;;;;;7.45;3.78;;;14.70;58.00;;;;;;20669881;28;20041;-50
2021/04/15 08:02:18;;;;;;;9.00;4.45;;;14.80;55.70;;;;;;20669691;28;20042;-49
2021/04/15 08:12:37;;;;;;;8.77;4.40;;;14.90;55.30;;;;;;20666905;28;20134;-49
2021/04/15 08:23:12;;;;;;;11.38;4.78;;;15.00;55.60;;;;;;20667780;28;20066;-50
2021/04/15 08:33:28;;;;;;;9.18;4.68;;;15.10;55.30;;;;;;20666306;28;20150;-49
2021/04/15 08:43:58;;;;;;;10.65;6.72;;;15.10;55.30;;;;;;20665726;28;20042;-49
2021/04/15 08:54:43;;;;;;;9.63;4.68;;;15.00;55.80;;;;;;20658314;28;20038;-50
2021/04/15 09:04:56;;;;;;;9.98;5.30;;;15.20;55.00;;;;;;20642682;28;20105;-50
2021/04/15 09:15:15;;;;;;;12.77;4.40;;;15.20;55.20;;;;;;20666125;28;20387;-48
2021/04/15 09:25:36;;;;;;;9.50;4.35;;;15.40;54.60;;;;;;20671343;28;20069;-49
2021/04/15 09:36:05;;;;;;;7.85;4.22;;;15.50;54.30;;;;;;20662623;28;20022;-47
2021/04/15 09:46:17;;;;;;;5.70;4.32;;;15.40;54.60;;;;;;20678795;28;20026;-50
2021/04/15 09:56:50;;;;;;;7.25;4.25;;;15.40;55.00;;;;;;20678524;28;20030;-49
2021/04/15 10:06:57;;;;;;;7.90;3.67;;;16.00;54.40;;;;;;20677824;28;20026;-50
2021/04/15 10:17:37;;;;;;;12.05;4.50;;;16.00;55.60;;;;;;20771071;28;20044;-48
2021/04/15 10:27:56;;;;;;;11.07;4.40;;;16.90;53.40;;;;;;20774580;28;20030;-50
2021/04/15 10:38:27;;;;;;;7.10;4.72;;;16.50;52.60;;;;;;20769285;28;20037;-48
2021/04/15 10:48:49;;;;;;;7.75;4.55;;;16.60;52.20;;;;;;20774701;28;20030;-50
2021/04/15 10:59:05;;;;;;;10.77;4.05;;;16.70;52.80;;;;;;20792146;28;20368;-49
2021/04/15 11:09:15;;;;;;;11.25;5.22;;;17.50;51.20;;;;;;20794132;28;20038;-51
2021/04/15 11:19:16;;;;;;;8.90;5.70;;;18.00;50.50;;;;;;20786644;28;20072;-51
2021/04/15 11:29:24;;;;;;;12.25;5.65;;;18.20;49.50;;;;;;20790726;28;20033;-51
2021/04/15 11:39:32;;;;;;;8.40;5.63;;;18.40;49.40;;;;;;20807824;28;20033;-50
2021/04/15 11:49:43;;;;;;;8.15;5.78;;;18.40;48.90;;;;;;20803560;28;20033;-57
2021/04/15 11:59:56;;;;;;;13.30;5.72;;;18.60;48.30;;;;;;20831831;28;20398;-49
2021/04/15 12:09:57;;;;;;;11.53;8.10;;;18.30;48.60;;;;;;20831895;28;20042;-50
2021/04/15 12:20:34;;;;;;;9.85;6.32;;;18.30;48.50;;;;;;20831955;28;20481;-49
2021/04/15 12:30:35;;;;;;;10.82;6.47;;;18.60;47.20;;;;;;20830108;28;20364;-49
2021/04/15 12:40:41;;;;;;;8.77;6.43;;;18.40;47.60;;;;;;20830145;28;20036;-50
2021/04/15 12:50:43;;;;;;;9.68;4.07;;;18.50;47.10;;;;;;20829477;28;20033;-49
2021/04/15 13:00:46;;;;;;;10.15;3.70;;;18.50;46.30;;;;;;20837694;28;20100;-49
2021/04/15 13:10:47;;;;;;;5.65;3.55;;;18.90;44.40;;;;;;20846480;28;20035;-49
2021/04/15 13:21:20;;;;;;;6.15;2.67;;;19.20;43.40;;;;;;20845071;28;20022;-49
2021/04/15 13:31:51;;;;;;;5.13;3.17;;;19.40;42.40;;;;;;20845777;28;20111;-50
2021/04/15 13:41:52;;;;;;;4.90;3.10;;;19.60;42.20;;;;;;20843760;28;20388;-49
2021/04/15 13:52:27;;;;;;;4.55;2.63;;;19.70;41.40;;;;;;20842758;28;20422;-51
2021/04/15 14:02:41;;;;;;;5.32;3.33;;;19.70;41.50;;;;;;20841965;28;20049;-49
2021/04/15 14:12:50;;;;;;;6.38;3.10;;;19.70;42.30;;;;;;20840630;28;20107;-49
2021/04/15 14:22:51;;;;;;;5.68;2.80;;;19.30;42.60;;;;;;20840473;28;20030;-48
2021/04/15 14:32:52;;;;;;;10.02;3.25;;;19.10;43.40;;;;;;20840796;28;20416;-50
2021/04/15 14:42:54;;;;;;;7.50;3.22;;;19.10;43.60;;;;;;20838936;28;20057;-49
2021/04/15 14:53:08;;;;;;;6.13;3.20;;;19.00;44.00;;;;;;20838023;28;20029;-50
2021/04/15 15:03:10;;;;;;;7.13;3.72;;;18.90;43.50;;;;;;20837469;28;20107;-51
2021/04/15 15:13:14;;;;;;;9.25;3.42;;;18.80;43.50;;;;;;20836356;28;20393;-50
2021/04/15 15:23:20;;;;;;;8.32;3.53;;;18.70;44.00;;;;;;20816090;28;20037;-50
2021/04/15 15:33:32;;;;;;;7.50;4.20;;;18.80;43.90;;;;;;20835199;28;20489;-50
2021/04/15 15:43:33;;;;;;;6.60;3.17;;;18.90;44.50;;;;;;20815890;28;20466;-49
2021/04/15 15:53:47;;;;;;;6.80;3.38;;;18.80;44.50;;;;;;20832575;28;20049;-49
2021/04/15 16:03:48;;;;;;;5.97;3.03;;;18.90;44.10;;;;;;20832309;28;20057;-49
2021/04/15 16:13:49;;;;;;;6.53;3.65;;;18.80;44.40;;;;;;20831809;28;20049;-50
2021/04/15 16:24:11;;;;;;;4.22;3.22;;;18.60;45.10;;;;;;20830604;28;20037;-49
2021/04/15 16:34:11;;;;;;;5.43;3.00;;;18.70;45.00;;;;;;20829684;28;20029;-49
2021/04/15 16:44:12;;;;;;;6.43;3.70;;;18.60;44.90;;;;;;20829296;28;20038;-49
2021/04/15 16:54:13;;;;;;;4.43;2.92;;;18.30;45.30;;;;;;20828401;28;20029;-49
2021/04/15 17:04:14;;;;;;;4.47;3.00;;;18.40;47.00;;;;;;20828244;28;20099;-49
2021/04/15 17:14:15;;;;;;;4.15;2.47;;;18.40;47.10;;;;;;20829079;28;20418;-49
2021/04/15 17:24:16;;;;;;;5.82;3.30;;;18.30;46.90;;;;;;20825922;28;20128;-51
2021/04/15 17:34:17;;;;;;;4.43;2.55;;;18.20;47.20;;;;;;20828234;28;20033;-49
2021/04/15 17:44:17;;;;;;;5.63;2.60;;;18.10;47.50;;;;;;20830363;28;20458;-47
2021/04/15 17:54:28;;;;;;;7.22;2.90;;;17.90;48.00;;;;;;20841980;28;20053;-48
2021/04/15 18:04:29;;;;;;;4.20;2.63;;;17.80;48.00;;;;;;20841769;28;20049;-47
2021/04/15 18:14:30;;;;;;;5.65;3.40;;;17.80;49.40;;;;;;20841073;28;20071;-50
2021/04/15 18:24:30;;;;;;;7.78;4.03;;;17.90;48.00;;;;;;20840161;28;20116;-49
2021/04/15 18:34:31;;;;;;;6.25;3.20;;;17.60;48.40;;;;;;20839652;28;20480;-50
2021/04/15 18:44:32;;;;;;;7.07;3.22;;;17.40;49.00;;;;;;20839015;28;20041;-50
2021/04/15 18:54:33;;;;;;;7.63;2.90;;;17.20;49.90;;;;;;20837889;28;20481;-49
2021/04/15 19:04:34;;;;;;;5.28;2.83;;;17.10;51.10;;;;;;20837393;28;20037;-49
2021/04/15 19:14:34;;;;;;;4.43;2.92;;;17.00;50.60;;;;;;20836611;28;20030;-49
2021/04/15 19:24:35;;;;;;;5.88;2.90;;;16.90;50.70;;;;;;20835871;28;20034;-50
2021/04/15 19:34:36;;;;;;;4.13;2.72;;;16.70;51.00;;;;;;20835483;28;20117;-49
2021/04/15 19:44:37;;;;;;;8.25;3.80;;;16.70;50.90;;;;;;20834008;28;20030;-49
2021/04/15 19:54:38;;;;;;;8.07;4.53;;;16.50;51.40;;;;;;20833556;28;20025;-49
2021/04/15 20:04:38;;;;;;;6.70;2.88;;;16.40;51.40;;;;;;20832127;28;20453;-49
2021/04/15 20:14:39;;;;;;;5.35;3.60;;;16.30;51.70;;;;;;20830847;28;20036;-51
2021/04/15 20:24:40;;;;;;;3.00;2.45;;;16.20;52.20;;;;;;20830370;28;20051;-49
2021/04/15 20:34:41;;;;;;;5.22;3.00;;;16.00;52.60;;;;;;20830019;28;20018;-50
2021/04/15 20:44:41;;;;;;;4.20;2.55;;;15.80;53.00;;;;;;20829110;28;20065;-49
2021/04/15 20:54:42;;;;;;;4.97;2.50;;;15.50;53.40;;;;;;20810732;28;20039;-50
2021/04/15 21:04:43;;;;;;;5.43;2.90;;;15.40;53.70;;;;;;20828574;28;20108;-50
2021/04/15 21:14:44;;;;;;;7.22;3.25;;;15.30;54.10;;;;;;20828903;28;20022;-50
2021/04/15 21:24:45;;;;;;;3.60;2.50;;;15.20;54.40;;;;;;20840364;28;20041;-49
2021/04/15 21:34:45;;;;;;;5.32;2.90;;;15.10;54.70;;;;;;20844775;28;20033;-50
2021/04/15 21:44:46;;;;;;;5.75;2.85;;;15.00;55.00;;;;;;20843627;28;20044;-50
2021/04/15 21:54:47;;;;;;;4.80;2.50;;;15.00;55.10;;;;;;20842976;28;20028;-50
2021/04/15 22:04:49;;;;;;;5.15;2.55;;;14.90;55.40;;;;;;20823898;28;20056;-51
2021/04/15 22:14:50;;;;;;;3.92;2.38;;;14.80;55.70;;;;;;20841113;28;20390;-49
2021/04/15 22:24:51;;;;;;;3.83;2.67;;;14.70;56.10;;;;;;20822632;28;20405;-49
2021/04/15 22:34:54;;;;;;;3.55;2.30;;;14.60;56.50;;;;;;20839499;28;20083;-49
2021/04/15 22:44:55;;;;;;;6.05;2.92;;;14.60;56.30;;;;;;20838640;28;20042;-50
2021/04/15 22:54:56;;;;;;;5.10;2.97;;;14.50;56.50;;;;;;20837945;28;20050;-49
2021/04/15 23:04:57;;;;;;;6.05;3.45;;;14.50;56.50;;;;;;20837969;28;20366;-49
2021/04/15 23:14:58;;;;;;;6.90;3.38;;;14.50;56.60;;;;;;20836337;28;20036;-51
2021/04/15 23:24:58;;;;;;;6.45;3.22;;;14.40;56.60;;;;;;20835525;28;20044;-49
2021/04/15 23:34:59;;;;;;;5.18;2.70;;;14.40;56.90;;;;;;20835068;28;20013;-50
2021/04/15 23:45:00;;;;;;;3.53;2.35;;;14.30;57.30;;;;;;20832974;28;20108;-49
2021/04/15 23:55:01;;;;;;;3.58;1.67;;;14.20;57.80;;;;;;20833969;28;20041;-50
